Route Details

Aircraft Information
Group: Trans-Atlantic Ops
Types: A31F, B744, B763, MD11
Route Data
Distance: 3135nm
Duration: 7h 04m
Origin METAR: KIAD 181652Z 33004KT 10SM FEW045 27/15 A2999 RMK AO2 SLP151 T02720150
Dest. METAR: EGNX 181720Z 22016KT 9999 FEW030 SCT043 21/15 Q1011
Freight Data
(for Aug 18, 2022)
Load Factor:
73%
Manifested Cargo: 140,646lbs
Financial History
Total Freight: 175,145lbs
Average Load: 0lbs/flt
Fuel Used: 169,515lbs
Avg. Fuel Used: 0lbs/flt
Fuel Expense: $90,958
Avg. Fuel Expense: $0
Avg. Fuel Cost: $0/lbs
Total Gross Income: $406,336
Pilot Pay: $508
Total Expenses: $79,847
Total Revenue: $230,274
Average Revenue: $0

Capitol Logistics 323




KIAD
Washington Dulles International Airport
Dulles, Virginia
EGNX
East Midlands Airport
Derby,

Activity Log

Date Flight Route Aircraft Duration
08/09/2022 CPX323 Not Available A31F 6h 21m
07/12/2022 CPX323 JCOBY4 SWANN DCT BROSS Q419 RBV Q22 FOXWD DCT CADIL DCT TUDEP NATS NETKI DCT NIBOG DCT MAKUX MAKU1E B763 6h 20m